createdAt,value
2023-03-06T00:00:10.934Z,2.30
2023-03-06T00:02:37.703Z,2.20
2023-03-06T00:05:04.946Z,2.10
2023-03-06T00:07:31.783Z,2.80
2023-03-06T00:09:58.507Z,2.30
2023-03-06T00:12:27.741Z,2.10
2023-03-06T00:14:54.584Z,2.20
2023-03-06T00:17:21.527Z,2.10
2023-03-06T00:19:48.371Z,2.60
2023-03-06T00:22:15.631Z,2.30
2023-03-06T00:24:42.501Z,2.60
2023-03-06T00:27:10.044Z,2.00
2023-03-06T00:29:36.766Z,2.40
2023-03-06T00:32:04.007Z,2.20
2023-03-06T00:34:30.782Z,2.60
2023-03-06T00:36:57.597Z,2.30
2023-03-06T00:39:26.731Z,2.50
2023-03-06T00:41:53.520Z,2.40
2023-03-06T00:44:20.180Z,3.50
2023-03-06T00:46:49.319Z,2.40
2023-03-06T00:49:16.177Z,2.50
2023-03-06T00:51:43.013Z,2.50
2023-03-06T00:54:09.871Z,2.50
2023-03-06T00:56:36.728Z,3.00
2023-03-06T00:59:03.660Z,2.90
2023-03-06T01:01:30.533Z,2.20
2023-03-06T01:03:57.350Z,2.40
2023-03-06T01:06:24.094Z,2.60
2023-03-06T01:08:50.912Z,2.80
2023-03-06T01:13:54.858Z,2.80
2023-03-06T01:16:21.973Z,2.80
2023-03-06T01:18:49.574Z,3.30
2023-03-06T01:21:16.529Z,2.90
2023-03-06T01:23:43.475Z,3.20
2023-03-06T01:26:10.899Z,3.40
2023-03-06T01:28:39.260Z,2.70
2023-03-06T01:31:07.088Z,2.90
2023-03-06T01:33:34.545Z,2.80
2023-03-06T01:36:04.722Z,2.90
2023-03-06T01:38:31.728Z,3.10
2023-03-06T01:40:58.674Z,2.90
2023-03-06T01:43:27.231Z,3.80
2023-03-06T01:46:42.060Z,3.30
2023-03-06T01:49:12.117Z,3.20
2023-03-06T01:51:46.033Z,2.80
2023-03-06T01:54:17.356Z,3.10
2023-03-06T01:56:47.211Z,2.80
2023-03-06T01:59:14.353Z,3.70
2023-03-06T02:01:41.512Z,3.00
2023-03-06T02:04:09.376Z,3.40
2023-03-06T02:06:38.894Z,3.60
2023-03-06T02:09:06.263Z,3.50
2023-03-06T02:11:33.250Z,3.30
2023-03-06T02:14:00.342Z,3.90
2023-03-06T02:16:29.973Z,4.10
2023-03-06T02:18:58.949Z,4.70
2023-03-06T02:21:31.115Z,5.00
2023-03-06T02:24:29.892Z,5.80
2023-03-06T02:26:57.082Z,6.20
2023-03-06T02:29:31.781Z,7.40
2023-03-06T02:32:00.915Z,6.80
2023-03-06T02:34:27.819Z,7.80
2023-03-06T02:37:11.335Z,7.90
2023-03-06T02:39:41.366Z,8.40
2023-03-06T02:42:08.375Z,9.00
2023-03-06T02:44:38.834Z,9.50
2023-03-06T02:47:05.903Z,10.40
2023-03-06T02:49:32.642Z,10.40
2023-03-06T02:51:59.506Z,11.00
2023-03-06T02:54:26.340Z,10.40
2023-03-06T02:56:53.039Z,10.70
2023-03-06T02:59:19.824Z,11.70
2023-03-06T03:01:47.837Z,11.40
2023-03-06T03:04:14.709Z,11.50
2023-03-06T03:06:41.585Z,11.90
2023-03-06T03:09:08.335Z,12.40
2023-03-06T03:11:35.182Z,11.90
2023-03-06T03:14:02.026Z,12.10
2023-03-06T03:16:28.931Z,11.40
2023-03-06T03:18:55.929Z,11.90
2023-03-06T03:21:25.512Z,12.30
2023-03-06T03:23:52.381Z,12.60
2023-03-06T03:26:22.347Z,12.20
2023-03-06T03:28:49.257Z,13.10
2023-03-06T03:31:16.095Z,12.40
2023-03-06T03:33:42.952Z,11.50
2023-03-06T03:36:10.073Z,11.30
2023-03-06T03:38:37.099Z,12.30
2023-03-06T03:41:04.733Z,11.30
2023-03-06T03:43:32.290Z,11.70
2023-03-06T03:45:59.030Z,12.00
2023-03-06T03:48:25.875Z,12.00
2023-03-06T03:50:52.925Z,10.20
2023-03-06T03:53:19.988Z,10.60
2023-03-06T03:55:49.684Z,10.00
2023-03-06T03:58:16.532Z,10.40
2023-03-06T04:00:43.378Z,10.10
2023-03-06T04:03:10.434Z,10.80
2023-03-06T04:05:37.165Z,10.60
2023-03-06T04:08:04.431Z,10.10
2023-03-06T04:10:31.480Z,9.70
2023-03-06T04:12:58.324Z,9.10
2023-03-06T04:15:25.174Z,9.10
2023-03-06T04:17:52.334Z,8.20
2023-03-06T04:20:19.291Z,9.00
2023-03-06T04:22:46.021Z,9.10
2023-03-06T04:25:12.767Z,9.70
2023-03-06T04:27:39.613Z,9.40
2023-03-06T04:30:07.382Z,8.80
2023-03-06T04:32:36.738Z,8.70
2023-03-06T04:35:03.638Z,8.80
2023-03-06T04:37:31.140Z,8.80
2023-03-06T04:39:57.841Z,8.30
2023-03-06T04:42:24.703Z,9.10
2023-03-06T04:44:51.440Z,11.50
2023-03-06T04:47:19.224Z,9.30
2023-03-06T04:49:46.250Z,8.50
2023-03-06T04:52:15.661Z,9.20
2023-03-06T04:54:43.260Z,9.00
2023-03-06T04:57:14.382Z,8.60
2023-03-06T04:59:41.109Z,9.90
2023-03-06T05:02:08.182Z,9.10
2023-03-06T05:04:35.113Z,9.20
2023-03-06T05:07:01.845Z,9.20
2023-03-06T05:09:28.906Z,9.00
2023-03-06T05:11:55.985Z,8.10
2023-03-06T05:14:25.376Z,8.00
2023-03-06T05:16:52.575Z,8.70
2023-03-06T05:19:19.362Z,9.20
2023-03-06T05:21:50.767Z,9.10
2023-03-06T05:24:17.525Z,9.70
2023-03-06T05:26:44.234Z,9.10
2023-03-06T05:29:11.135Z,9.00
2023-03-06T05:31:38.057Z,8.90
2023-03-06T05:34:04.870Z,8.20
2023-03-06T05:36:32.255Z,8.10
2023-03-06T05:38:59.031Z,9.10
2023-03-06T05:41:25.760Z,8.70
2023-03-06T05:43:53.880Z,8.30
2023-03-06T05:46:20.630Z,8.50
2023-03-06T05:48:47.369Z,7.80
2023-03-06T05:51:14.042Z,7.50
2023-03-06T05:53:40.861Z,7.50
2023-03-06T05:56:11.593Z,8.30
2023-03-06T05:58:38.946Z,8.60
2023-03-06T06:01:20.319Z,8.60
2023-03-06T06:03:47.461Z,7.60
2023-03-06T06:06:16.921Z,7.40
2023-03-06T06:08:46.094Z,7.20
2023-03-06T06:11:15.698Z,8.20
2023-03-06T06:13:42.539Z,8.30
2023-03-06T06:16:15.938Z,7.50
2023-03-06T06:18:43.508Z,7.30
2023-03-06T06:21:12.209Z,7.80
2023-03-06T06:23:39.098Z,7.20
2023-03-06T06:26:10.289Z,8.00
2023-03-06T06:28:37.641Z,7.30
2023-03-06T06:31:12.662Z,7.10
2023-03-06T06:33:40.863Z,6.30
2023-03-06T06:36:19.275Z,6.80
2023-03-06T06:38:46.105Z,6.50
2023-03-06T06:41:38.834Z,7.10
2023-03-06T06:44:00.021Z,6.50
2023-03-06T06:47:09.590Z,5.90
2023-03-06T06:49:14.951Z,5.90
2023-03-06T06:51:42.204Z,5.70
2023-03-06T06:54:10.391Z,5.50
2023-03-06T06:56:37.429Z,5.90
2023-03-06T06:59:16.102Z,5.20
2023-03-06T07:01:44.753Z,6.20
2023-03-06T07:04:13.361Z,6.10
2023-03-06T07:06:40.789Z,5.90
2023-03-06T07:09:09.982Z,6.10
2023-03-06T07:11:37.766Z,6.30
2023-03-06T07:14:04.505Z,6.40
2023-03-06T07:16:31.441Z,5.80
2023-03-06T07:18:58.440Z,5.50
2023-03-06T07:21:25.222Z,6.40
2023-03-06T07:23:51.897Z,5.70
2023-03-06T07:26:18.710Z,6.00
2023-03-06T07:28:52.455Z,5.10
2023-03-06T07:31:22.294Z,4.80
2023-03-06T07:33:50.115Z,6.50
2023-03-06T07:36:17.465Z,5.80
2023-03-06T07:38:46.683Z,5.70
2023-03-06T07:41:16.518Z,6.50
2023-03-06T07:43:44.790Z,5.20
2023-03-06T07:46:12.981Z,4.60
2023-03-06T07:48:40.202Z,4.60
2023-03-06T07:51:14.008Z,4.60
2023-03-06T07:53:40.861Z,4.20
2023-03-06T07:56:11.783Z,4.30
2023-03-06T07:58:40.340Z,4.10
2023-03-06T08:01:12.759Z,4.80
2023-03-06T08:03:39.720Z,4.00
2023-03-06T08:06:12.018Z,3.40
2023-03-06T08:08:40.126Z,3.30
2023-03-06T08:11:08.716Z,3.30
2023-03-06T08:13:36.420Z,3.40
2023-03-06T08:16:03.457Z,3.40
2023-03-06T08:18:30.614Z,3.30
2023-03-06T08:21:15.927Z,4.00
2023-03-06T08:23:43.049Z,3.20
2023-03-06T08:26:15.786Z,3.40
2023-03-06T08:28:43.170Z,2.20
2023-03-06T08:31:20.913Z,1.80
2023-03-06T08:33:47.733Z,1.70
2023-03-06T08:36:14.470Z,1.90
2023-03-06T08:38:41.360Z,1.80
2023-03-06T08:41:08.153Z,1.40
2023-03-06T08:43:36.020Z,1.40
2023-03-06T08:46:03.179Z,1.40
2023-03-06T08:48:30.234Z,1.50
2023-03-06T08:50:56.938Z,1.50
2023-03-06T08:53:40.334Z,0.90
2023-03-06T08:56:16.631Z,1.20
2023-03-06T08:58:43.609Z,1.30
2023-03-06T09:01:17.922Z,1.20
2023-03-06T09:03:48.048Z,1.00
2023-03-06T09:06:15.911Z,1.00
2023-03-06T09:08:44.488Z,1.20
2023-03-06T09:11:13.200Z,0.90
2023-03-06T09:13:40.625Z,0.80
2023-03-06T09:16:09.069Z,0.80
2023-03-06T09:18:36.494Z,0.80
2023-03-06T09:21:04.302Z,0.60
2023-03-06T09:23:31.330Z,0.50
2023-03-06T09:26:03.537Z,0.70
2023-03-06T09:28:30.445Z,0.70
2023-03-06T09:30:59.686Z,0.80
2023-03-06T09:33:28.795Z,0.80
2023-03-06T09:35:57.171Z,0.50
2023-03-06T09:38:26.423Z,0.60
2023-03-06T09:41:00.352Z,0.70
2023-03-06T09:43:46.017Z,0.60
2023-03-06T09:46:25.669Z,0.60
2023-03-06T09:49:17.028Z,0.50
2023-03-06T09:52:08.263Z,0.70
2023-03-06T09:55:08.359Z,0.50
2023-03-06T09:57:38.171Z,0.50
2023-03-06T10:00:14.649Z,0.50
2023-03-06T10:02:45.027Z,0.50
2023-03-06T10:05:41.903Z,0.50
2023-03-06T10:08:24.191Z,0.50
2023-03-06T10:11:02.042Z,0.40
2023-03-06T10:13:47.207Z,0.60
2023-03-06T10:16:26.281Z,0.40
2023-03-06T10:18:55.111Z,0.70
2023-03-06T10:21:38.195Z,0.50
2023-03-06T10:24:26.582Z,0.50
2023-03-06T10:27:17.090Z,0.40
2023-03-06T10:30:01.668Z,0.30
2023-03-06T10:32:51.814Z,0.40
2023-03-06T10:35:40.844Z,0.40
2023-03-06T10:38:21.156Z,0.50
2023-03-06T10:41:12.674Z,0.30
2023-03-06T10:43:59.271Z,0.40
2023-03-06T10:46:36.531Z,0.50
2023-03-06T10:49:14.975Z,0.30
2023-03-06T10:51:56.244Z,0.30
2023-03-06T10:54:25.696Z,0.30
2023-03-06T10:56:52.452Z,0.30
2023-03-06T10:59:29.493Z,0.40
2023-03-06T11:01:58.504Z,0.30
2023-03-06T11:04:33.753Z,0.30
2023-03-06T11:07:17.755Z,0.30
2023-03-06T11:10:16.970Z,0.40
2023-03-06T11:12:44.283Z,0.40
2023-03-06T11:15:23.786Z,0.30
2023-03-06T11:17:50.485Z,0.40
2023-03-06T11:20:26.932Z,0.40
2023-03-06T11:23:01.576Z,0.60
2023-03-06T11:25:33.657Z,0.30
2023-03-06T11:28:04.548Z,0.30
2023-03-06T11:30:40.033Z,0.30
2023-03-06T11:33:29.875Z,0.60
2023-03-06T11:36:04.374Z,0.40
2023-03-06T11:38:40.696Z,0.40
2023-03-06T11:41:16.197Z,0.30
2023-03-06T11:44:15.650Z,0.40
2023-03-06T11:46:50.191Z,0.50
2023-03-06T11:49:24.427Z,0.40
2023-03-06T11:51:55.487Z,0.40
2023-03-06T11:54:22.728Z,0.40
2023-03-06T11:56:53.972Z,0.40
2023-03-06T11:59:58.582Z,0.30
2023-03-06T12:02:57.105Z,0.60
2023-03-06T12:05:37.602Z,0.30
2023-03-06T12:08:41.934Z,0.40
2023-03-06T12:14:42.636Z,0.40
2023-03-06T12:17:28.606Z,0.40
2023-03-06T12:20:10.511Z,0.40
2023-03-06T12:23:02.499Z,0.30
2023-03-06T12:25:38.143Z,0.30
2023-03-06T12:28:33.128Z,0.40
2023-03-06T12:31:51.540Z,0.50
2023-03-06T12:34:43.787Z,0.80
2023-03-06T12:37:11.228Z,0.60
2023-03-06T12:39:40.272Z,0.50
2023-03-06T12:42:49.040Z,0.50
2023-03-06T12:45:30.086Z,0.70
2023-03-06T12:47:57.972Z,0.70
2023-03-06T12:50:28.868Z,0.30
2023-03-06T12:52:59.295Z,0.70
2023-03-06T12:55:27.188Z,0.50
2023-03-06T12:57:54.042Z,0.70
2023-03-06T13:00:34.338Z,0.50
2023-03-06T13:03:30.548Z,0.60
2023-03-06T13:06:32.460Z,0.40
2023-03-06T13:09:19.510Z,0.90
2023-03-06T13:11:49.235Z,0.80
2023-03-06T13:14:54.977Z,0.60
2023-03-06T13:17:28.792Z,1.10
2023-03-06T13:20:37.946Z,0.80
2023-03-06T13:23:43.139Z,0.70
2023-03-06T13:26:25.257Z,0.70
2023-03-06T13:28:57.829Z,0.90
2023-03-06T13:31:49.343Z,1.00
2023-03-06T13:34:50.259Z,0.80
2023-03-06T13:37:17.035Z,1.00
2023-03-06T13:39:56.049Z,1.20
2023-03-06T13:42:27.350Z,1.00
2023-03-06T13:44:55.837Z,1.00
2023-03-06T13:47:31.669Z,0.90
2023-03-06T13:49:58.935Z,1.10
2023-03-06T13:52:50.928Z,1.30
2023-03-06T13:55:31.462Z,1.40
2023-03-06T13:58:11.278Z,1.40
2023-03-06T14:00:46.506Z,1.50
2023-03-06T14:03:37.954Z,1.50
2023-03-06T14:06:42.195Z,1.90
2023-03-06T14:09:30.731Z,1.70
2023-03-06T14:12:09.576Z,2.00
2023-03-06T14:14:43.859Z,2.50
2023-03-06T14:17:35.438Z,2.50
2023-03-06T14:20:21.190Z,2.70
2023-03-06T14:22:48.028Z,2.70
2023-03-06T14:25:29.745Z,3.40
2023-03-06T14:28:05.655Z,3.10
2023-03-06T14:30:49.410Z,3.90
2023-03-06T14:33:42.698Z,3.00
2023-03-06T14:36:14.736Z,3.20
2023-03-06T14:38:59.676Z,3.80
2023-03-06T14:41:32.914Z,3.30
2023-03-06T14:44:19.644Z,4.00
2023-03-06T14:46:51.467Z,3.80
2023-03-06T14:49:23.870Z,4.00
2023-03-06T14:52:00.667Z,4.00
2023-03-06T14:54:37.096Z,4.40
2023-03-06T14:57:10.314Z,4.90
2023-03-06T14:59:53.972Z,4.20
2023-03-06T15:02:23.808Z,3.90
2023-03-06T15:04:55.448Z,4.40
2023-03-06T15:07:25.830Z,4.20
2023-03-06T15:09:53.952Z,3.50
2023-03-06T15:12:20.997Z,3.40
2023-03-06T15:15:03.803Z,3.20
2023-03-06T15:17:42.334Z,3.20
2023-03-06T15:20:41.591Z,2.80
2023-03-06T15:23:22.998Z,3.00
2023-03-06T15:25:53.999Z,3.50
2023-03-06T15:28:38.657Z,3.20
2023-03-06T15:31:24.598Z,3.10
2023-03-06T15:34:06.555Z,3.10
2023-03-06T15:36:48.260Z,2.50
2023-03-06T15:39:34.587Z,2.40
2023-03-06T15:42:20.748Z,2.60
2023-03-06T15:44:50.051Z,2.80
2023-03-06T15:47:17.287Z,2.60
2023-03-06T15:49:46.499Z,2.60
2023-03-06T15:52:13.340Z,2.90
2023-03-06T15:54:40.186Z,3.40
2023-03-06T15:57:08.619Z,3.80
2023-03-06T15:59:43.211Z,3.60
2023-03-06T16:04:47.448Z,5.40
2023-03-06T16:07:20.676Z,5.00
2023-03-06T16:09:47.757Z,5.80
2023-03-06T16:12:19.730Z,5.90
2023-03-06T16:14:48.223Z,6.30
2023-03-06T16:17:18.144Z,6.50
2023-03-06T16:19:47.339Z,6.50
2023-03-06T16:22:14.613Z,7.90
2023-03-06T16:24:41.963Z,7.20
2023-03-06T16:27:17.601Z,7.40
2023-03-06T16:29:44.457Z,7.40
2023-03-06T16:32:11.880Z,7.90
2023-03-06T16:34:38.862Z,8.10
2023-03-06T16:37:06.523Z,7.80
2023-03-06T16:39:33.676Z,7.10
2023-03-06T16:42:00.422Z,7.80
2023-03-06T16:44:27.257Z,7.70
2023-03-06T16:46:54.009Z,7.20
2023-03-06T16:49:23.692Z,7.50
2023-03-06T16:51:51.134Z,8.00
2023-03-06T16:54:18.756Z,8.70
2023-03-06T16:56:45.790Z,8.60
2023-03-06T16:59:13.012Z,9.70
2023-03-06T17:01:42.837Z,10.20
2023-03-06T17:04:12.992Z,10.40
2023-03-06T17:06:41.691Z,10.10
2023-03-06T17:09:08.820Z,11.30
2023-03-06T17:11:38.670Z,11.50
2023-03-06T17:14:07.707Z,11.10
2023-03-06T17:16:37.256Z,10.90
2023-03-06T17:19:04.017Z,11.70
2023-03-06T17:21:30.854Z,12.10
2023-03-06T17:23:57.836Z,12.20
2023-03-06T17:26:24.866Z,13.10
2023-03-06T17:28:51.746Z,11.80
2023-03-06T17:31:23.452Z,13.60
2023-03-06T17:33:51.648Z,12.70
2023-03-06T17:36:19.577Z,12.00
2023-03-06T17:38:47.145Z,13.10
2023-03-06T17:41:14.752Z,13.10
2023-03-06T17:43:41.498Z,13.20
2023-03-06T17:46:10.543Z,13.50
2023-03-06T17:48:37.543Z,14.80
2023-03-06T17:51:04.914Z,13.60
2023-03-06T17:53:32.342Z,12.50
2023-03-06T17:55:59.431Z,13.80
2023-03-06T17:58:27.371Z,13.20
2023-03-06T18:00:54.340Z,14.20
2023-03-06T18:03:21.162Z,14.30
2023-03-06T18:05:48.488Z,13.70
2023-03-06T18:08:16.022Z,13.10
2023-03-06T18:10:43.729Z,14.00
2023-03-06T18:13:10.814Z,14.10
2023-03-06T18:15:41.557Z,14.50
2023-03-06T18:18:09.136Z,14.10
2023-03-06T18:20:41.491Z,15.20
2023-03-06T18:23:08.550Z,14.50
2023-03-06T18:25:35.635Z,14.10
2023-03-06T18:28:02.476Z,14.80
2023-03-06T18:30:29.287Z,15.10
2023-03-06T18:32:57.054Z,15.20
2023-03-06T18:35:23.919Z,15.60
2023-03-06T18:37:50.861Z,15.90
2023-03-06T18:40:17.948Z,16.50
2023-03-06T18:42:44.797Z,15.20
2023-03-06T18:45:14.254Z,16.50
2023-03-06T18:47:41.287Z,14.70
2023-03-06T18:50:08.868Z,17.50
2023-03-06T18:52:35.638Z,16.30
2023-03-06T18:55:02.710Z,16.30
2023-03-06T18:57:30.488Z,16.80
2023-03-06T18:59:57.593Z,17.50
2023-03-06T19:02:24.549Z,17.40
2023-03-06T19:04:53.051Z,17.90
2023-03-06T19:07:22.635Z,16.50
2023-03-06T19:09:49.556Z,17.70
2023-03-06T19:12:17.568Z,18.30
2023-03-06T19:14:44.819Z,18.50
2023-03-06T19:17:11.671Z,16.10
2023-03-06T19:19:38.664Z,18.30
2023-03-06T19:22:05.501Z,18.00
2023-03-06T19:24:32.307Z,17.60
2023-03-06T19:26:59.108Z,17.80
2023-03-06T19:29:26.090Z,16.90
2023-03-06T19:31:53.066Z,18.40
2023-03-06T19:34:20.038Z,17.10
2023-03-06T19:36:46.850Z,16.70
2023-03-06T19:39:16.507Z,14.90
2023-03-06T19:41:43.356Z,13.10
2023-03-06T19:44:10.264Z,13.40
2023-03-06T19:46:37.836Z,14.30
2023-03-06T19:49:12.244Z,13.40
2023-03-06T19:51:39.192Z,13.70
2023-03-06T19:54:06.030Z,12.30
2023-03-06T19:56:33.834Z,13.00
2023-03-06T19:59:01.099Z,12.50
2023-03-06T20:01:28.655Z,12.70
2023-03-06T20:04:00.800Z,12.20
2023-03-06T20:06:33.459Z,12.30
2023-03-06T20:09:01.687Z,12.50
2023-03-06T20:11:32.593Z,12.40
2023-03-06T20:14:01.184Z,11.70
2023-03-06T20:16:39.042Z,12.40
2023-03-06T20:19:11.193Z,12.50
2023-03-06T20:21:38.549Z,14.30
2023-03-06T20:24:07.022Z,13.30
2023-03-06T20:26:35.010Z,13.00
2023-03-06T20:29:01.724Z,14.10
2023-03-06T20:31:30.400Z,13.10
2023-03-06T20:33:59.283Z,12.90
2023-03-06T20:36:39.349Z,13.40
2023-03-06T20:39:15.243Z,13.50
2023-03-06T20:41:42.645Z,13.90
2023-03-06T20:44:13.587Z,13.70
2023-03-06T20:46:40.701Z,13.10
2023-03-06T20:49:07.887Z,14.10
2023-03-06T20:51:39.103Z,14.70
2023-03-06T20:54:08.253Z,13.90
2023-03-06T20:56:36.823Z,13.30
2023-03-06T20:59:03.681Z,13.90
2023-03-06T21:01:36.194Z,12.00
2023-03-06T21:04:04.647Z,12.80
2023-03-06T21:06:31.856Z,14.80
2023-03-06T21:09:00.165Z,13.70
2023-03-06T21:11:27.691Z,13.90
2023-03-06T21:13:54.930Z,14.50
2023-03-06T21:16:24.654Z,13.20
2023-03-06T21:18:55.811Z,13.30
2023-03-06T21:21:25.205Z,13.10
2023-03-06T21:23:55.837Z,12.60
2023-03-06T21:26:24.741Z,13.40
2023-03-06T21:28:54.303Z,13.10
2023-03-06T21:31:22.226Z,14.10
2023-03-06T21:33:50.154Z,13.80
2023-03-06T21:36:18.864Z,13.30
2023-03-06T21:38:45.672Z,12.50
2023-03-06T21:41:18.140Z,12.60
2023-03-06T21:43:45.301Z,12.80
2023-03-06T21:46:15.438Z,12.00
2023-03-06T21:48:42.378Z,12.50
2023-03-06T21:51:19.116Z,11.90
2023-03-06T21:53:47.714Z,13.00
2023-03-06T21:56:17.214Z,13.40
2023-03-06T21:58:44.881Z,13.20
2023-03-06T22:01:20.442Z,11.90
2023-03-06T22:03:49.044Z,12.70
2023-03-06T22:06:19.296Z,12.50
2023-03-06T22:08:48.875Z,11.70
2023-03-06T22:11:20.546Z,11.70
2023-03-06T22:13:48.386Z,12.00
2023-03-06T22:16:16.850Z,11.50
2023-03-06T22:18:51.409Z,12.50
2023-03-06T22:21:20.643Z,11.90
2023-03-06T22:23:51.868Z,12.30
2023-03-06T22:26:19.109Z,11.50
2023-03-06T22:28:46.628Z,12.60
2023-03-06T22:31:16.567Z,11.70
2023-03-06T22:33:43.634Z,11.70
2023-03-06T22:36:15.018Z,12.20
2023-03-06T22:38:47.051Z,12.20
2023-03-06T22:41:16.001Z,11.10
2023-03-06T22:43:43.785Z,11.00
2023-03-06T22:46:13.034Z,10.60
2023-03-06T22:48:42.898Z,10.80
2023-03-06T22:51:15.337Z,8.90
2023-03-06T22:53:45.618Z,9.80
2023-03-06T22:56:15.547Z,9.00
2023-03-06T22:58:44.829Z,10.00
2023-03-06T23:01:23.314Z,9.90
2023-03-06T23:03:55.735Z,8.70
2023-03-06T23:06:36.804Z,8.80
2023-03-06T23:09:07.583Z,7.40
2023-03-06T23:11:34.908Z,8.00
2023-03-06T23:14:01.811Z,7.60
2023-03-06T23:16:29.012Z,7.30
2023-03-06T23:18:55.763Z,6.80
2023-03-06T23:21:23.008Z,5.80
2023-03-06T23:23:54.047Z,5.60
2023-03-06T23:26:26.936Z,6.10
2023-03-06T23:28:53.984Z,5.90
2023-03-06T23:31:24.060Z,5.70
2023-03-06T23:33:51.067Z,5.40
2023-03-06T23:36:20.259Z,5.30
2023-03-06T23:38:47.105Z,5.90
2023-03-06T23:41:16.430Z,5.10
2023-03-06T23:43:43.233Z,5.40
2023-03-06T23:46:10.412Z,5.20
2023-03-06T23:48:39.832Z,5.00
2023-03-06T23:51:08.482Z,5.40
2023-03-06T23:53:35.496Z,5.70
2023-03-06T23:56:04.967Z,4.80
2023-03-06T23:58:32.351Z,4.20
